Stations météo

réclame
Mon MeteoGroup
Trevico, Italie (16263): Température de l'air & dewpoint: 20.05.2018 17:00:00 - 26.05.2018 17:00:00 (CEST)Trevico, Italie (16263): Vitesse du vent: 20.05.2018 17:00:00 - 26.05.2018 17:00:00 (CEST)Trevico, Italie (16263): Direction du vent: 20.05.2018 17:00:00 - 26.05.2018 17:00:00 (CEST)Trevico, Italie (16263): visibility: 20.05.2018 17:00:00 - 26.05.2018 17:00:00 (CEST)
Date & Time tt [°C] td [°C] ff [km/h] ff [knt] dd vv [km]
26.05.2018 17:00:00 20,0 11,5 11 6 ESE 30
26.05.2018 16:00:00 - - - - - -
26.05.2018 15:00:00 - - - - - -
26.05.2018 14:00:00 19,4 10,9 16 9 ESE 30
26.05.2018 13:00:00 - - - - - -
26.05.2018 12:00:00 - - - - - -
26.05.2018 11:00:00 18,0 11,1 11 6 S 30
26.05.2018 10:00:00 - - - - - -
26.05.2018 09:00:00 - - - - - -
26.05.2018 08:00:00 15,0 11,2 11 6 NE 30
26.05.2018 07:00:00 - - - - - -
26.05.2018 06:00:00 - - - - - -
26.05.2018 05:00:00 13,8 10,2 9 5 NE 12
26.05.2018 04:00:00 14,0 11,0 8 4 NNE 10
26.05.2018 03:00:00 - - - - - -
26.05.2018 02:00:00 14,4 12,8 5 3 N 12
26.05.2018 01:00:00 15,0 13,0 5 3 N 10
26.05.2018 00:00:00 15,0 14,0 5 3 NNE 10
25.05.2018 23:00:00 15,0 14,0 5 3 NE 12
25.05.2018 22:00:00 15,0 14,0 5 3 NNE 10
25.05.2018 21:00:00 16,0 15,0 8 4 N -
25.05.2018 20:00:00 16,8 15,8 8 4 N 16
25.05.2018 19:00:00 - - - - - -
25.05.2018 18:00:00 - - - - - -
25.05.2018 17:00:00 18,0 13,1 5 3 N 20
25.05.2018 16:00:00 - - - - - -
25.05.2018 15:00:00 - - - - - -
25.05.2018 14:00:00 18,0 13,1 5 3 E 20
25.05.2018 13:00:00 - - - - - -
25.05.2018 12:00:00 - - - - - -
25.05.2018 11:00:00 17,0 12,5 4 2 N 20
25.05.2018 10:00:00 - - - - - -
25.05.2018 09:00:00 16,0 12,0 8 4 NNE 10
25.05.2018 08:00:00 14,8 12,7 5 3 N 20
25.05.2018 07:00:00 13,0 11,0 8 4 N 10
25.05.2018 06:00:00 - - - - - -
25.05.2018 05:00:00 13,0 12,1 8 4 NNW 25
25.05.2018 04:00:00 13,0 12,0 5 3 NNW 10
25.05.2018 03:00:00 13,0 11,0 5 3 NNW 10
25.05.2018 02:00:00 12,8 11,7 15 8 N 20
25.05.2018 01:00:00 13,0 12,0 13 7 NNW 10
25.05.2018 00:00:00 14,0 13,0 13 7 NNW -
24.05.2018 23:00:00 14,0 13,4 9 5 N -
24.05.2018 22:00:00 15,0 14,0 5 3 N -
24.05.2018 21:00:00 16,0 15,0 9 5 N -
24.05.2018 20:00:00 16,2 12,0 5 3 NNW 25
24.05.2018 19:00:00 - - - - - -
24.05.2018 18:00:00 - - - - - -
24.05.2018 17:00:00 17,4 13,1 0 0 N 25
24.05.2018 16:00:00 - - - - - -
24.05.2018 15:00:00 - - - - - -
24.05.2018 14:00:00 17,8 14,1 4 2 N 25
24.05.2018 13:00:00 - - - - - -
24.05.2018 12:00:00 - - - - - -
24.05.2018 11:00:00 12,6 10,3 8 4 NE 10
24.05.2018 10:00:00 12,0 10,0 8 4 N -
24.05.2018 09:00:00 11,0 9,0 5 3 N -
24.05.2018 08:00:00 9,4 7,4 9 5 NNE -
24.05.2018 07:00:00 9,0 7,0 8 4 N -
24.05.2018 06:00:00 9,0 7,0 9 5 NE -
24.05.2018 05:00:00 9,0 7,1 11 6 WNW -
24.05.2018 04:00:00 9,0 7,0 9 5 N -
24.05.2018 03:00:00 - - - - - -
24.05.2018 02:00:00 9,4 7,7 15 8 NNE -
24.05.2018 01:00:00 10,0 8,0 8 4 N -
24.05.2018 00:00:00 10,0 8,0 13 7 NW -
23.05.2018 23:00:00 9,6 8,1 9 5 N -
23.05.2018 22:00:00 10,0 8,0 11 6 NW -
23.05.2018 21:00:00 10,0 8,0 11 6 NNE -
23.05.2018 20:00:00 9,4 8,6 13 7 NNW -
23.05.2018 19:00:00 10,0 9,0 16 9 NW -
23.05.2018 18:00:00 10,0 9,0 29 16 NW -
23.05.2018 17:00:00 10,0 9,7 18 10 WNW -
23.05.2018 16:00:00 10,0 10,0 21 11 NNW -
23.05.2018 15:00:00 10,0 10,0 26 14 NW -
23.05.2018 14:00:00 11,4 10,5 18 10 NNW -
23.05.2018 13:00:00 12,0 11,0 13 7 W -
23.05.2018 12:00:00 12,0 10,0 8 4 NW -
23.05.2018 11:00:00 11,2 10,3 5 3 W 5
23.05.2018 10:00:00 12,0 10,0 9 5 W 5
23.05.2018 09:00:00 12,0 10,0 9 5 SSW 10
23.05.2018 08:00:00 11,6 9,9 9 5 W 25
23.05.2018 07:00:00 11,0 10,0 8 4 SSW 10
23.05.2018 06:00:00 11,0 10,0 9 5 W 10
23.05.2018 05:00:00 11,0 8,6 18 10 W 14
23.05.2018 04:00:00 - - - - - -
23.05.2018 03:00:00 - - - - - -
23.05.2018 02:00:00 11,2 10,6 29 16 W -
23.05.2018 01:00:00 13,0 13,0 18 10 NNW -
23.05.2018 00:00:00 - - - - - -
22.05.2018 23:00:00 14,0 12,4 8 4 SSW 14
22.05.2018 22:00:00 - - - - - -
22.05.2018 21:00:00 - - - - - -
22.05.2018 20:00:00 14,0 12,4 4 2 SSE 14
22.05.2018 19:00:00 14,0 14,0 8 4 SSE -
22.05.2018 18:00:00 - - - - - -
22.05.2018 17:00:00 16,0 12,6 8 4 S 14
22.05.2018 16:00:00 - - - - - -
22.05.2018 15:00:00 - - - - - -
22.05.2018 14:00:00 19,2 11,3 15 8 N 30
22.05.2018 13:00:00 - - - - - -
22.05.2018 12:00:00 - - - - - -
22.05.2018 11:00:00 16,0 10,7 9 5 SSW 30
22.05.2018 10:00:00 - - - - - -
22.05.2018 09:00:00 - - - - - -
22.05.2018 08:00:00 12,8 10,9 24 13 SSW 20
22.05.2018 07:00:00 - - - - - -
22.05.2018 06:00:00 - - - - - -
22.05.2018 05:00:00 12,2 10,6 16 9 W 20
22.05.2018 04:00:00 - - - - - -
22.05.2018 03:00:00 13,0 11,0 18 10 SSW 10
22.05.2018 02:00:00 13,8 11,9 15 8 S 15
22.05.2018 01:00:00 14,0 11,0 9 5 SSW 10
22.05.2018 00:00:00 15,0 11,0 9 5 W 10
21.05.2018 23:00:00 15,2 11,0 11 6 W 15
21.05.2018 22:00:00 15,0 13,0 9 5 W 10
21.05.2018 21:00:00 15,0 12,0 8 4 W 10
21.05.2018 20:00:00 15,2 10,6 9 5 W 30
21.05.2018 19:00:00 - - - - - -
21.05.2018 18:00:00 - - - - - -
21.05.2018 17:00:00 15,2 13,6 8 4 W 20
21.05.2018 16:00:00 - - - - - -
21.05.2018 15:00:00 - - - - - -
21.05.2018 14:00:00 18,0 12,7 9 5 S 15
21.05.2018 13:00:00 - - - - - -
21.05.2018 12:00:00 - - - - - -
21.05.2018 11:00:00 17,0 10,6 4 2 WNW 30
21.05.2018 10:00:00 - - - - - -
21.05.2018 09:00:00 - - - - - -
21.05.2018 08:00:00 13,0 10,4 9 5 SSW 30
21.05.2018 07:00:00 - - - - - -
21.05.2018 06:00:00 12,0 10,0 15 8 SSE 10
21.05.2018 05:00:00 12,6 10,7 16 9 SE 12
21.05.2018 04:00:00 12,0 10,0 16 9 SE 10
21.05.2018 03:00:00 12,0 10,0 11 6 SE 10
21.05.2018 02:00:00 12,6 10,3 21 11 SSE 12
21.05.2018 01:00:00 13,0 10,0 18 10 SSE 10
21.05.2018 00:00:00 13,0 10,0 15 8 ESE 10
20.05.2018 23:00:00 13,0 10,5 15 8 SE 12
20.05.2018 22:00:00 13,0 11,0 18 10 SSE 10
20.05.2018 21:00:00 14,0 11,0 15 8 E 10
20.05.2018 20:00:00 15,0 10,4 16 9 ESE 30
20.05.2018 19:00:00 - - - - - -
20.05.2018 18:00:00 - - - - - -
20.05.2018 17:00:00 16,6 9,5 15 8 ESE 30

tt = Température de l'air
td = dewpoint
ff = Vitesse du vent
dd = Direction du vent
vv = visibility

stations d'obs. à proximité